Time;durP1;ratioP1;P1;durP2;ratioP2;P2;SDS_P1;SDS_P2;PMS_P1;PMS_P2;Temp;Humidity;BMP_temperature;BMP_pressure;BME280_temperature;BME280_humidity;BME280_pressure;Samples;Min_cycle;Max_cycle;Signal;HPM_P1;HPM_P2
2022/08/23 00:00:34;;;;;;;8.77;6.35;;;;;;;;;;4974785;28;20121;-40
2022/08/23 00:02:59;;;;;;;8.07;6.10;;;;;;;;;;4974490;28;20604;-41
2022/08/23 00:05:25;;;;;;;9.15;6.28;;;;;;;;;;4974738;28;20027;-44
2022/08/23 00:07:50;;;;;;;10.93;7.22;;;;;;;;;;4974251;28;20486;-40
2022/08/23 00:10:17;;;;;;;15.27;7.38;;;;;;;;;;4974559;28;20027;-40
2022/08/23 00:12:44;;;;;;;13.13;7.32;;;;;;;;;;4974531;28;20034;-41
2022/08/23 00:15:13;;;;;;;13.73;6.35;;;;;;;;;;4974392;28;20026;-43
2022/08/23 00:17:38;;;;;;;9.13;6.30;;;;;;;;;;4974156;28;20062;-40
2022/08/23 00:20:06;;;;;;;11.52;6.78;;;;;;;;;;4974472;28;20057;-41
2022/08/23 00:22:33;;;;;;;15.18;7.22;;;;;;;;;;4973860;28;20070;-39
2022/08/23 00:24:58;;;;;;;18.52;7.30;;;;;;;;;;4974037;28;20026;-40
2022/08/23 00:27:24;;;;;;;10.82;6.88;;;;;;;;;;4974079;28;20035;-39
2022/08/23 00:29:51;;;;;;;10.70;7.28;;;;;;;;;;4974236;28;20026;-39
2022/08/23 00:32:26;;;;;;;14.82;7.55;;;;;;;;;;4974066;28;20030;-39
2022/08/23 00:34:53;;;;;;;17.70;7.78;;;;;;;;;;4974238;28;20355;-39
2022/08/23 00:37:19;;;;;;;16.55;8.18;;;;;;;;;;4973825;28;20038;-39
2022/08/23 00:39:45;;;;;;;17.13;8.55;;;;;;;;;;4973797;28;20026;-40
2022/08/23 00:47:53;;;;;;;29.30;11.45;;;;;;;;;;4973992;28;20433;-39
2022/08/23 00:50:29;;;;;;;23.02;12.15;;;;;;;;;;4973735;28;20027;-41
2022/08/23 00:53:16;;;;;;;23.13;11.85;;;;;;;;;;4973999;28;20023;-40
2022/08/23 00:55:45;;;;;;;22.98;12.85;;;;;;;;;;4973731;28;20023;-41
2022/08/23 00:58:13;;;;;;;30.70;13.80;;;;;;;;;;4973686;28;20030;-40
2022/08/23 01:00:39;;;;;;;21.25;13.25;;;;;;;;;;4973691;28;20085;-40
2022/08/23 01:03:09;;;;;;;26.58;13.55;;;;;;;;;;4973850;28;20023;-40
2022/08/23 01:06:02;;;;;;;29.83;13.80;;;;;;;;;;4973567;28;20034;-41
2022/08/23 01:08:30;;;;;;;35.30;15.18;;;;;;;;;;4973805;28;20042;-40
2022/08/23 01:11:05;;;;;;;29.88;14.05;;;;;;;;;;4973520;28;20019;-40
2022/08/23 01:13:46;;;;;;;30.73;14.35;;;;;;;;;;4973557;28;20110;-40
2022/08/23 01:16:17;;;;;;;32.45;14.75;;;;;;;;;;4973839;28;20445;-39
2022/08/23 01:18:43;;;;;;;34.28;15.63;;;;;;;;;;4973752;28;20037;-42
2022/08/23 01:21:28;;;;;;;36.13;15.40;;;;;;;;;;4973349;28;20047;-39
2022/08/23 01:23:57;;;;;;;43.30;17.45;;;;;;;;;;4973521;28;20031;-40
2022/08/23 01:26:24;;;;;;;43.55;16.85;;;;;;;;;;4973954;28;20093;-40
2022/08/23 01:28:52;;;;;;;35.50;16.02;;;;;;;;;;4973320;28;20038;-39
2022/08/23 01:31:18;;;;;;;35.72;16.23;;;;;;;;;;4973324;28;20038;-40
2022/08/23 01:33:47;;;;;;;32.00;14.85;;;;;;;;;;4956026;28;20425;-40
2022/08/23 01:36:14;;;;;;;32.72;16.02;;;;;;;;;;4956570;28;20105;-41
2022/08/23 01:38:40;;;;;;;39.58;15.57;;;;;;;;;;4973295;28;20089;-39
2022/08/23 01:41:06;;;;;;;34.33;15.77;;;;;;;;;;4973329;28;20083;-42
2022/08/23 01:43:32;;;;;;;34.05;14.32;;;;;;;;;;4973487;28;20027;-39
2022/08/23 01:46:09;;;;;;;35.97;15.90;;;;;;;;;;4973247;28;20030;-39
2022/08/23 01:48:35;;;;;;;36.55;16.33;;;;;;;;;;4973539;28;20031;-39
2022/08/23 01:51:00;;;;;;;35.95;16.67;;;;;;;;;;4977143;28;20382;-38
2022/08/23 01:53:26;;;;;;;35.33;15.90;;;;;;;;;;4959645;28;20023;-38
2022/08/23 01:55:52;;;;;;;35.83;16.05;;;;;;;;;;4976784;28;20470;-39
2022/08/23 01:58:17;;;;;;;35.33;16.95;;;;;;;;;;4977029;28;20042;-39
2022/08/23 02:00:43;;;;;;;36.65;17.02;;;;;;;;;;4976983;28;20080;-39
2022/08/23 02:03:11;;;;;;;39.72;17.70;;;;;;;;;;4976910;28;20521;-40
2022/08/23 02:05:37;;;;;;;41.33;17.70;;;;;;;;;;4976852;28;20035;-40
2022/08/23 02:10:57;;;;;;;40.20;18.23;;;;;;;;;;4960980;28;20456;-40
2022/08/23 02:13:24;;;;;;;35.78;17.02;;;;;;;;;;4976678;28;20065;-40
2022/08/23 02:15:51;;;;;;;40.75;17.50;;;;;;;;;;4976723;28;20025;-40
2022/08/23 02:18:19;;;;;;;39.63;17.77;;;;;;;;;;4976645;28;20022;-40
2022/08/23 02:20:47;;;;;;;40.58;17.27;;;;;;;;;;4976067;28;20398;-38
2022/08/23 02:23:13;;;;;;;33.95;17.05;;;;;;;;;;4976327;28;20402;-40
2022/08/23 02:25:39;;;;;;;36.83;17.27;;;;;;;;;;4976189;28;20027;-40
2022/08/23 02:28:05;;;;;;;37.08;16.75;;;;;;;;;;4976406;28;20031;-40
2022/08/23 02:30:31;;;;;;;34.70;15.77;;;;;;;;;;4976456;28;20094;-40
2022/08/23 02:32:56;;;;;;;37.80;17.48;;;;;;;;;;4976367;28;20462;-40
2022/08/23 02:35:22;;;;;;;39.30;16.35;;;;;;;;;;4976099;28;20474;-40
2022/08/23 02:37:48;;;;;;;36.13;16.23;;;;;;;;;;4976058;28;20030;-40
2022/08/23 02:40:13;;;;;;;39.33;16.95;;;;;;;;;;4976210;28;20046;-40
2022/08/23 02:42:39;;;;;;;34.35;17.02;;;;;;;;;;4958677;28;20027;-40
2022/08/23 02:45:07;;;;;;;36.50;17.00;;;;;;;;;;4975907;28;20109;-40
2022/08/23 02:47:35;;;;;;;39.53;16.23;;;;;;;;;;4976025;28;20035;-40
2022/08/23 02:50:05;;;;;;;41.03;18.35;;;;;;;;;;4975841;28;20026;-40
2022/08/23 02:52:31;;;;;;;37.08;18.08;;;;;;;;;;4976275;28;20031;-40
2022/08/23 02:54:57;;;;;;;39.28;17.70;;;;;;;;;;4975795;28;20520;-41
2022/08/23 02:57:23;;;;;;;38.67;17.27;;;;;;;;;;4975943;28;20023;-40
2022/08/23 02:59:49;;;;;;;45.08;18.48;;;;;;;;;;4975574;28;20026;-39
2022/08/23 03:02:14;;;;;;;36.58;17.63;;;;;;;;;;4975643;28;20030;-39
2022/08/23 03:04:40;;;;;;;39.90;18.42;;;;;;;;;;4975601;28;20031;-39
2022/08/23 03:07:05;;;;;;;42.05;18.42;;;;;;;;;;4975525;28;20023;-40
2022/08/23 03:09:31;;;;;;;42.88;19.60;;;;;;;;;;4975411;28;20034;-39
2022/08/23 03:11:56;;;;;;;40.65;19.05;;;;;;;;;;4975406;28;20055;-39
2022/08/23 03:14:23;;;;;;;37.28;18.60;;;;;;;;;;4975357;28;20034;-41
2022/08/23 03:16:48;;;;;;;42.38;19.42;;;;;;;;;;4975567;28;20065;-39
2022/08/23 03:19:14;;;;;;;45.35;19.30;;;;;;;;;;4975332;28;20084;-39
2022/08/23 03:21:41;;;;;;;44.88;19.20;;;;;;;;;;4957507;28;20098;-39
2022/08/23 03:24:07;;;;;;;38.60;18.13;;;;;;;;;;4974847;28;20049;-39
2022/08/23 03:26:33;;;;;;;44.22;19.17;;;;;;;;;;4975129;28;20039;-39
2022/08/23 03:28:58;;;;;;;30.58;16.17;;;;;;;;;;4974890;28;20034;-39
2022/08/23 03:31:24;;;;;;;27.90;13.63;;;;;;;;;;4975025;28;20085;-40
2022/08/23 03:33:50;;;;;;;21.25;9.98;;;;;;;;;;4975292;28;20027;-40
2022/08/23 03:36:16;;;;;;;22.38;10.52;;;;;;;;;;4975183;28;20478;-43
2022/08/23 03:38:41;;;;;;;16.27;9.43;;;;;;;;;;4974913;28;20494;-40
2022/08/23 03:41:08;;;;;;;20.10;9.57;;;;;;;;;;4975201;28;20042;-42
2022/08/23 03:43:34;;;;;;;20.23;10.48;;;;;;;;;;4974835;28;20011;-39
2022/08/23 03:46:00;;;;;;;17.88;10.23;;;;;;;;;;4974759;28;20026;-42
2022/08/23 03:48:26;;;;;;;17.92;10.40;;;;;;;;;;4974892;28;20046;-41
2022/08/23 03:50:51;;;;;;;19.23;11.10;;;;;;;;;;4975025;28;20034;-41
2022/08/23 03:53:17;;;;;;;21.80;11.25;;;;;;;;;;4974705;28;20406;-43
2022/08/23 03:55:43;;;;;;;22.20;11.73;;;;;;;;;;4974632;28;20146;-44
2022/08/23 03:58:10;;;;;;;26.20;12.57;;;;;;;;;;4974536;28;20041;-39
2022/08/23 04:00:38;;;;;;;26.63;13.65;;;;;;;;;;4974523;28;20054;-40
2022/08/23 04:03:04;;;;;;;32.67;13.73;;;;;;;;;;4974763;28;20019;-40
2022/08/23 04:05:30;;;;;;;33.67;15.00;;;;;;;;;;4974396;28;20035;-41
2022/08/23 04:07:55;;;;;;;28.27;14.55;;;;;;;;;;4974292;28;20142;-39
2022/08/23 04:10:21;;;;;;;29.30;14.20;;;;;;;;;;4974547;28;20023;-39
2022/08/23 04:12:47;;;;;;;29.70;14.30;;;;;;;;;;4973727;28;20023;-40
2022/08/23 04:15:12;;;;;;;30.30;14.02;;;;;;;;;;4974189;28;20027;-39
2022/08/23 04:17:38;;;;;;;25.90;13.70;;;;;;;;;;4974474;28;20113;-39
2022/08/23 04:20:05;;;;;;;25.63;13.38;;;;;;;;;;4974478;28;20019;-40
2022/08/23 04:22:32;;;;;;;26.80;13.90;;;;;;;;;;4974023;28;20022;-40
2022/08/23 04:24:58;;;;;;;26.30;13.25;;;;;;;;;;4973880;28;20081;-39
2022/08/23 04:27:24;;;;;;;22.40;11.90;;;;;;;;;;4974015;28;20073;-40
2022/08/23 04:29:49;;;;;;;23.23;13.10;;;;;;;;;;4974509;28;20039;-40
2022/08/23 04:32:14;;;;;;;23.70;13.10;;;;;;;;;;4974046;28;20041;-40
2022/08/23 04:34:41;;;;;;;23.95;12.55;;;;;;;;;;4974219;28;20030;-39
2022/08/23 04:37:08;;;;;;;21.90;11.77;;;;;;;;;;4974116;28;20031;-43
2022/08/23 04:42:16;;;;;;;22.73;12.18;;;;;;;;;;4974168;28;20033;-44
2022/08/23 04:42:19;;;;;;;18.75;11.45;;;;;;;;;;4973804;28;20035;-44
2022/08/23 04:44:44;;;;;;;19.88;11.20;;;;;;;;;;4974109;28;20462;-42
2022/08/23 04:47:10;;;;;;;24.85;12.23;;;;;;;;;;4973815;28;20027;-43
2022/08/23 04:49:36;;;;;;;20.73;10.93;;;;;;;;;;4973767;28;20023;-40
2022/08/23 04:52:01;;;;;;;17.52;10.82;;;;;;;;;;4973703;28;20031;-42
2022/08/23 04:54:27;;;;;;;20.70;11.07;;;;;;;;;;4973967;28;20035;-45
2022/08/23 04:56:53;;;;;;;24.13;11.18;;;;;;;;;;4956772;28;20033;-42
2022/08/23 04:59:19;;;;;;;20.90;11.35;;;;;;;;;;4973596;28;20396;-44
2022/08/23 05:01:44;;;;;;;20.95;11.88;;;;;;;;;;4956284;28;20046;-44
2022/08/23 05:04:10;;;;;;;18.30;11.18;;;;;;;;;;4973892;28;20117;-42
2022/08/23 05:06:36;;;;;;;16.98;10.90;;;;;;;;;;4973611;28;20382;-42
2022/08/23 05:09:02;;;;;;;21.88;12.00;;;;;;;;;;4956228;28;20035;-47
2022/08/23 05:11:28;;;;;;;19.63;11.85;;;;;;;;;;4973826;28;20027;-40
2022/08/23 05:13:54;;;;;;;21.75;11.48;;;;;;;;;;4973853;28;20027;-42
2022/08/23 05:16:19;;;;;;;17.23;10.98;;;;;;;;;;4973711;28;20027;-39
2022/08/23 05:18:45;;;;;;;18.70;11.45;;;;;;;;;;4973465;28;20382;-44
2022/08/23 05:21:20;;;;;;;20.02;11.18;;;;;;;;;;4973471;28;20031;-42
2022/08/23 05:23:46;;;;;;;17.60;11.05;;;;;;;;;;4975501;28;20046;-40
2022/08/23 05:26:13;;;;;;;15.27;10.18;;;;;;;;;;4977186;28;20413;-40
2022/08/23 05:28:44;;;;;;;17.15;9.68;;;;;;;;;;4976991;28;20485;-40
2022/08/23 05:31:14;;;;;;;17.92;9.93;;;;;;;;;;4976717;28;20026;-42
2022/08/23 05:33:41;;;;;;;17.80;9.70;;;;;;;;;;4977260;28;20058;-40
2022/08/23 05:36:09;;;;;;;17.48;10.90;;;;;;;;;;4971781;28;20351;-39
2022/08/23 05:38:34;;;;;;;21.10;10.55;;;;;;;;;;4976972;28;20022;-40
2022/08/23 05:41:01;;;;;;;16.77;10.30;;;;;;;;;;4976873;28;20074;-39
2022/08/23 05:43:28;;;;;;;15.80;9.30;;;;;;;;;;4976767;28;20107;-39
2022/08/23 05:46:09;;;;;;;15.95;9.73;;;;;;;;;;4976656;28;20447;-42
2022/08/23 05:48:37;;;;;;;16.65;9.43;;;;;;;;;;4976966;28;20065;-40
2022/08/23 05:51:22;;;;;;;15.48;8.73;;;;;;;;;;4976165;28;20389;-39
2022/08/23 05:53:50;;;;;;;14.35;8.60;;;;;;;;;;4974851;28;20430;-42
2022/08/23 05:56:25;;;;;;;11.95;7.95;;;;;;;;;;4974922;28;20069;-42
2022/08/23 05:58:54;;;;;;;14.57;8.48;;;;;;;;;;4974928;28;20090;-40
2022/08/23 06:01:20;;;;;;;12.77;7.78;;;;;;;;;;4975280;28;20363;-41
2022/08/23 06:03:46;;;;;;;12.65;7.20;;;;;;;;;;4975449;28;20371;-43
2022/08/23 06:06:14;;;;;;;14.63;8.90;;;;;;;;;;4976171;28;20050;-41
2022/08/23 06:08:41;;;;;;;12.30;8.23;;;;;;;;;;4976325;28;20469;-40
2022/08/23 06:11:14;;;;;;;14.20;8.32;;;;;;;;;;4976660;28;20030;-40
2022/08/23 06:13:49;;;;;;;12.25;7.93;;;;;;;;;;4976732;28;20030;-40
2022/08/23 06:16:17;;;;;;;14.98;7.90;;;;;;;;;;4976377;28;20494;-39
2022/08/23 06:18:43;;;;;;;17.00;8.27;;;;;;;;;;4976228;28;20039;-40
2022/08/23 06:21:12;;;;;;;9.75;6.82;;;;;;;;;;4976560;28;20034;-41
2022/08/23 06:23:38;;;;;;;9.27;6.47;;;;;;;;;;4976273;28;20109;-40
2022/08/23 06:26:22;;;;;;;10.32;7.07;;;;;;;;;;4976412;28;20118;-40
2022/08/23 06:28:50;;;;;;;12.90;6.97;;;;;;;;;;4976351;28;20035;-41
2022/08/23 06:31:44;;;;;;;12.50;7.72;;;;;;;;;;4975158;28;20031;-40
2022/08/23 06:34:06;;;;;;;8.40;5.75;;;;;;;;;;4975634;28;20066;-41
2022/08/23 06:36:32;;;;;;;9.63;5.50;;;;;;;;;;4975926;28;20034;-40
2022/08/23 06:38:57;;;;;;;9.55;6.18;;;;;;;;;;4976217;28;20386;-42
2022/08/23 06:41:23;;;;;;;9.43;5.45;;;;;;;;;;4975827;28;20022;-40
2022/08/23 06:43:49;;;;;;;7.68;5.45;;;;;;;;;;4976186;28;20038;-40
2022/08/23 06:46:18;;;;;;;8.75;4.18;;;;;;;;;;4976058;28;20034;-39
2022/08/23 06:48:44;;;;;;;6.60;3.83;;;;;;;;;;4975683;28;20031;-42
2022/08/23 06:51:13;;;;;;;8.43;4.70;;;;;;;;;;4975864;28;20550;-41
2022/08/23 06:53:38;;;;;;;6.95;4.60;;;;;;;;;;4975564;28;20078;-41
2022/08/23 06:56:05;;;;;;;5.65;3.70;;;;;;;;;;4975991;28;20500;-38
2022/08/23 06:58:30;;;;;;;7.85;4.68;;;;;;;;;;4975686;28;20135;-42
2022/08/23 07:01:11;;;;;;;10.70;6.72;;;;;;;;;;4975819;28;20113;-39
2022/08/23 07:03:36;;;;;;;8.27;4.63;;;;;;;;;;4975846;28;20027;-41
2022/08/23 07:06:02;;;;;;;4.55;3.50;;;;;;;;;;4975422;28;20094;-41
2022/08/23 07:08:27;;;;;;;8.15;5.28;;;;;;;;;;4975400;28;20114;-40
2022/08/23 07:10:55;;;;;;;7.30;4.40;;;;;;;;;;4975260;28;20117;-41
2022/08/23 07:13:21;;;;;;;7.80;4.28;;;;;;;;;;4958262;28;20114;-39
2022/08/23 07:15:47;;;;;;;7.32;4.70;;;;;;;;;;4974658;28;20194;-40
2022/08/23 07:18:13;;;;;;;12.25;5.10;;;;;;;;;;4975548;28;20371;-42
2022/08/23 07:20:38;;;;;;;7.40;4.85;;;;;;;;;;4975356;28;20037;-41
2022/08/23 07:23:04;;;;;;;5.95;4.53;;;;;;;;;;4974875;28;20406;-40
2022/08/23 07:25:31;;;;;;;6.30;4.38;;;;;;;;;;4975204;28;20027;-38
2022/08/23 07:27:57;;;;;;;7.82;4.28;;;;;;;;;;4974982;28;20042;-42
2022/08/23 07:30:22;;;;;;;7.50;5.03;;;;;;;;;;4975149;28;20019;-44
2022/08/23 07:32:48;;;;;;;6.75;4.80;;;;;;;;;;4957656;28;20043;-41
2022/08/23 07:35:13;;;;;;;6.10;4.60;;;;;;;;;;4975210;28;20081;-43
2022/08/23 07:37:39;;;;;;;9.77;4.70;;;;;;;;;;4975149;28;20478;-44
2022/08/23 07:40:06;;;;;;;5.18;4.18;;;;;;;;;;4974837;28;20534;-42
2022/08/23 07:42:32;;;;;;;9.35;5.22;;;;;;;;;;4974940;28;20081;-45
2022/08/23 07:44:57;;;;;;;6.28;4.78;;;;;;;;;;4974914;28;20489;-44
2022/08/23 07:47:23;;;;;;;8.10;4.77;;;;;;;;;;4973585;28;20521;-44
2022/08/23 07:49:49;;;;;;;7.47;4.97;;;;;;;;;;4974714;28;20390;-44
2022/08/23 07:52:15;;;;;;;8.43;4.75;;;;;;;;;;4974351;28;20035;-41
2022/08/23 07:54:41;;;;;;;9.38;5.60;;;;;;;;;;4974732;28;20037;-44
2022/08/23 07:57:07;;;;;;;7.88;5.18;;;;;;;;;;4974500;28;20035;-43
2022/08/23 07:59:32;;;;;;;9.65;5.80;;;;;;;;;;4974373;28;20033;-44
2022/08/23 08:01:58;;;;;;;12.38;6.40;;;;;;;;;;4974732;28;20031;-46
2022/08/23 08:04:24;;;;;;;7.68;5.22;;;;;;;;;;4974634;28;20101;-42
2022/08/23 08:06:50;;;;;;;9.40;5.93;;;;;;;;;;4974499;28;20161;-45
2022/08/23 08:09:19;;;;;;;7.55;5.35;;;;;;;;;;4973593;28;20041;-45
2022/08/23 08:11:46;;;;;;;14.60;5.70;;;;;;;;;;4956730;28;20503;-47
2022/08/23 08:14:13;;;;;;;10.57;5.78;;;;;;;;;;4974186;28;20027;-44
2022/08/23 08:16:44;;;;;;;7.72;5.07;;;;;;;;;;4974069;28;20027;-43
2022/08/23 08:19:14;;;;;;;7.53;4.55;;;;;;;;;;4974069;28;20027;-46
2022/08/23 08:21:41;;;;;;;10.98;5.65;;;;;;;;;;4973740;28;20030;-44
2022/08/23 08:24:09;;;;;;;6.28;4.45;;;;;;;;;;4973376;28;20074;-43
2022/08/23 08:26:35;;;;;;;8.10;4.38;;;;;;;;;;4970856;28;20030;-41
2022/08/23 08:29:01;;;;;;;6.20;4.57;;;;;;;;;;4972582;28;20031;-45
2022/08/23 08:31:27;;;;;;;10.10;6.97;;;;;;;;;;4972609;28;20096;-47
2022/08/23 08:33:53;;;;;;;8.63;5.15;;;;;;;;;;4972270;28;20041;-44
2022/08/23 08:36:36;;;;;;;7.95;4.95;;;;;;;;;;4972232;28;20363;-41
2022/08/23 08:39:05;;;;;;;4.93;3.80;;;;;;;;;;4952580;28;20015;-43
2022/08/23 08:41:57;;;;;;;5.10;4.15;;;;;;;;;;4972179;28;20026;-45
2022/08/23 08:44:48;;;;;;;7.30;3.78;;;;;;;;;;4969928;28;20070;-44
2022/08/23 08:47:35;;;;;;;5.55;4.05;;;;;;;;;;4971323;28;20019;-48
2022/08/23 08:50:04;;;;;;;4.82;3.80;;;;;;;;;;4972311;28;20035;-41
2022/08/23 08:52:36;;;;;;;9.70;3.80;;;;;;;;;;4972376;28;20027;-42
2022/08/23 08:55:16;;;;;;;5.13;3.83;;;;;;;;;;4954383;29;20030;-44
2022/08/23 08:57:44;;;;;;;6.88;4.30;;;;;;;;;;4953780;29;20389;-46
2022/08/23 09:00:14;;;;;;;6.25;4.50;;;;;;;;;;4953196;29;20558;-43
2022/08/23 09:02:40;;;;;;;5.03;3.55;;;;;;;;;;4952622;29;20031;-45
2022/08/23 09:05:17;;;;;;;5.10;3.80;;;;;;;;;;4952851;29;20548;-43
2022/08/23 09:08:17;;;;;;;5.07;4.10;;;;;;;;;;4952880;29;20159;-46
2022/08/23 09:10:43;;;;;;;6.53;3.40;;;;;;;;;;4953073;29;20031;-44
2022/08/23 09:13:14;;;;;;;8.43;3.83;;;;;;;;;;4952818;29;20074;-43
2022/08/23 09:15:57;;;;;;;4.45;3.63;;;;;;;;;;4952947;29;20098;-45
2022/08/23 09:18:23;;;;;;;4.20;3.33;;;;;;;;;;4952582;29;20494;-41
2022/08/23 09:20:54;;;;;;;5.45;3.45;;;;;;;;;;4952563;29;20031;-42
2022/08/23 09:23:24;;;;;;;4.30;3.20;;;;;;;;;;4951920;29;20787;-44
2022/08/23 09:25:56;;;;;;;5.85;3.72;;;;;;;;;;4952655;29;20023;-44
2022/08/23 09:28:22;;;;;;;6.97;3.80;;;;;;;;;;4952410;29;20037;-43
2022/08/23 09:30:56;;;;;;;3.95;3.17;;;;;;;;;;4952306;29;20114;-44
2022/08/23 09:33:24;;;;;;;5.10;3.35;;;;;;;;;;4952517;29;20399;-44
2022/08/23 09:36:17;;;;;;;15.95;4.20;;;;;;;;;;4952762;29;20024;-42
2022/08/23 09:38:58;;;;;;;4.13;2.90;;;;;;;;;;4952241;29;20035;-45
2022/08/23 09:41:35;;;;;;;7.03;3.65;;;;;;;;;;4952287;29;20475;-48
2022/08/23 09:44:02;;;;;;;4.75;3.08;;;;;;;;;;4946209;29;20028;-43
2022/08/23 09:46:40;;;;;;;4.88;2.55;;;;;;;;;;4952320;29;20060;-41
2022/08/23 09:49:40;;;;;;;4.90;3.25;;;;;;;;;;4952371;29;20091;-43
2022/08/23 09:52:25;;;;;;;4.55;3.17;;;;;;;;;;4930337;29;20031;-43
2022/08/23 09:55:30;;;;;;;4.78;2.72;;;;;;;;;;4952387;29;20712;-43
2022/08/23 09:57:58;;;;;;;5.40;3.60;;;;;;;;;;4940274;29;20031;-42
2022/08/23 10:00:39;;;;;;;8.55;4.47;;;;;;;;;;4952222;29;20027;-42
2022/08/23 10:03:25;;;;;;;4.55;3.85;;;;;;;;;;4952589;29;20047;-45
2022/08/23 10:05:59;;;;;;;5.05;3.80;;;;;;;;;;4952014;29;20027;-41
2022/08/23 10:08:53;;;;;;;4.93;3.47;;;;;;;;;;4951798;29;20434;-48
2022/08/23 10:11:23;;;;;;;4.35;3.25;;;;;;;;;;4948552;29;20070;-45
2022/08/23 10:13:50;;;;;;;5.55;3.28;;;;;;;;;;4955950;29;20035;-46
2022/08/23 10:16:27;;;;;;;4.25;3.17;;;;;;;;;;4955483;29;20038;-42
2022/08/23 10:19:28;;;;;;;3.75;3.30;;;;;;;;;;4955529;29;20038;-44
2022/08/23 10:22:07;;;;;;;4.90;3.28;;;;;;;;;;4949508;29;20434;-44
2022/08/23 10:25:04;;;;;;;4.25;3.00;;;;;;;;;;4954973;29;20130;-42
2022/08/23 10:30:53;;;;;;;4.05;3.30;;;;;;;;;;4955538;29;20493;-44
2022/08/23 10:33:56;;;;;;;7.80;3.15;;;;;;;;;;4955155;29;20053;-42
2022/08/23 10:36:57;;;;;;;4.53;2.97;;;;;;;;;;4955105;29;20031;-41
2022/08/23 10:39:28;;;;;;;7.97;4.03;;;;;;;;;;4955375;29;20027;-43
2022/08/23 10:42:22;;;;;;;5.03;3.83;;;;;;;;;;4954973;29;20033;-43
2022/08/23 10:45:04;;;;;;;5.72;3.78;;;;;;;;;;4955005;29;20043;-45
2022/08/23 10:47:36;;;;;;;6.38;4.65;;;;;;;;;;4954945;29;20520;-43
2022/08/23 10:50:12;;;;;;;4.38;3.97;;;;;;;;;;4964538;28;20031;-43
2022/08/23 10:52:54;;;;;;;4.97;3.75;;;;;;;;;;4970916;28;20042;-42
2022/08/23 10:55:42;;;;;;;5.05;3.40;;;;;;;;;;4971448;28;20045;-45
2022/08/23 10:58:20;;;;;;;5.40;3.55;;;;;;;;;;4972495;28;20386;-40
2022/08/23 11:00:46;;;;;;;4.00;3.38;;;;;;;;;;4972821;28;20106;-42
2022/08/23 11:03:28;;;;;;;4.07;3.60;;;;;;;;;;4972810;28;20019;-51
2022/08/23 11:06:24;;;;;;;5.10;3.80;;;;;;;;;;4974188;28;20023;-46
2022/08/23 11:09:09;;;;;;;4.20;3.30;;;;;;;;;;4975307;28;20038;-52
2022/08/23 11:11:44;;;;;;;7.38;3.70;;;;;;;;;;4973580;28;20027;-48
2022/08/23 11:14:32;;;;;;;5.63;2.83;;;;;;;;;;4973897;28;20352;-53
2022/08/23 11:17:01;;;;;;;4.53;3.30;;;;;;;;;;4973892;28;20034;-49
2022/08/23 11:19:48;;;;;;;4.43;3.50;;;;;;;;;;4973869;28;20023;-48
2022/08/23 11:22:22;;;;;;;5.20;2.75;;;;;;;;;;4972995;28;20038;-49
2022/08/23 11:24:54;;;;;;;3.90;3.35;;;;;;;;;;4955849;28;20142;-48
2022/08/23 11:27:46;;;;;;;4.13;2.90;;;;;;;;;;4973867;28;20058;-49
2022/08/23 11:30:30;;;;;;;5.20;2.92;;;;;;;;;;4969792;28;20043;-51
2022/08/23 11:33:01;;;;;;;3.42;3.10;;;;;;;;;;4973541;28;20054;-48
2022/08/23 11:36:08;;;;;;;4.07;2.97;;;;;;;;;;4973292;28;20027;-49
2022/08/23 11:38:42;;;;;;;3.28;2.97;;;;;;;;;;4973235;28;20141;-46
2022/08/23 11:41:26;;;;;;;4.32;2.90;;;;;;;;;;4973203;28;20037;-50
2022/08/23 11:43:54;;;;;;;5.55;2.70;;;;;;;;;;4973194;28;20042;-51
2022/08/23 11:46:25;;;;;;;4.97;2.92;;;;;;;;;;4973041;28;20027;-48
2022/08/23 11:49:11;;;;;;;4.00;2.72;;;;;;;;;;4973051;28;20038;-51
2022/08/23 11:51:46;;;;;;;6.07;2.83;;;;;;;;;;4953714;29;20114;-47
2022/08/23 11:54:32;;;;;;;7.75;2.90;;;;;;;;;;4954080;29;20046;-50
2022/08/23 11:57:16;;;;;;;4.20;2.95;;;;;;;;;;4953707;29;20034;-49
2022/08/23 11:59:56;;;;;;;4.45;2.80;;;;;;;;;;4953656;29;20042;-48
2022/08/23 12:03:00;;;;;;;4.57;3.20;;;;;;;;;;4953611;29;20088;-47
2022/08/23 12:05:52;;;;;;;4.32;3.20;;;;;;;;;;4953908;29;20054;-50
2022/08/23 12:08:52;;;;;;;5.68;3.63;;;;;;;;;;4934549;29;20047;-46
2022/08/23 12:11:20;;;;;;;9.38;3.40;;;;;;;;;;4953228;29;20608;-52
2022/08/23 12:13:57;;;;;;;3.10;2.80;;;;;;;;;;4953202;29;20774;-50
2022/08/23 12:16:27;;;;;;;4.45;3.33;;;;;;;;;;4953363;29;20019;-52
2022/08/23 12:18:56;;;;;;;3.80;3.30;;;;;;;;;;4953595;29;20031;-47
2022/08/23 12:21:21;;;;;;;5.13;3.55;;;;;;;;;;4953178;29;20431;-49
2022/08/23 12:23:51;;;;;;;4.25;2.90;;;;;;;;;;4952989;29;20114;-49
2022/08/23 12:26:23;;;;;;;3.78;3.45;;;;;;;;;;4953160;29;20055;-52
2022/08/23 12:28:56;;;;;;;6.30;3.55;;;;;;;;;;4952957;29;20031;-51
2022/08/23 12:31:35;;;;;;;4.03;2.75;;;;;;;;;;4953329;29;20059;-46
2022/08/23 12:34:19;;;;;;;5.65;3.45;;;;;;;;;;4952832;28;20042;-47
2022/08/23 12:36:51;;;;;;;3.30;3.00;;;;;;;;;;4953268;29;20052;-50
2022/08/23 12:39:19;;;;;;;4.32;3.08;;;;;;;;;;4952885;29;20095;-50
2022/08/23 12:41:48;;;;;;;3.50;3.20;;;;;;;;;;4935695;29;20078;-51
2022/08/23 12:44:18;;;;;;;3.83;3.20;;;;;;;;;;4953127;29;20035;-51
2022/08/23 12:46:46;;;;;;;4.05;2.90;;;;;;;;;;4952563;29;20033;-46
2022/08/23 12:49:34;;;;;;;3.80;3.40;;;;;;;;;;4953244;28;20062;-47
2022/08/23 12:52:05;;;;;;;3.35;3.05;;;;;;;;;;4972210;28;20370;-46
2022/08/23 12:54:43;;;;;;;3.40;3.10;;;;;;;;;;4972168;28;20106;-49
2022/08/23 12:57:19;;;;;;;5.22;3.30;;;;;;;;;;4972070;28;20027;-46
2022/08/23 12:59:51;;;;;;;2.97;2.67;;;;;;;;;;4972441;28;20054;-50
2022/08/23 13:02:26;;;;;;;5.75;2.95;;;;;;;;;;4972188;28;20462;-52
2022/08/23 13:04:57;;;;;;;4.15;3.30;;;;;;;;;;4972254;28;20031;-45
2022/08/23 13:07:23;;;;;;;3.92;2.83;;;;;;;;;;4971984;28;20553;-47
2022/08/23 13:09:50;;;;;;;6.35;3.75;;;;;;;;;;4972080;28;20105;-50
2022/08/23 13:12:17;;;;;;;6.05;3.25;;;;;;;;;;4972089;28;20038;-51
2022/08/23 13:14:48;;;;;;;5.25;3.58;;;;;;;;;;4971785;28;20030;-48
2022/08/23 13:17:26;;;;;;;5.43;3.13;;;;;;;;;;4971856;28;20393;-47
2022/08/23 13:20:09;;;;;;;3.95;3.20;;;;;;;;;;4972060;28;20031;-51
2022/08/23 13:22:54;;;;;;;3.35;3.00;;;;;;;;;;4971791;28;20023;-47
2022/08/23 13:25:26;;;;;;;3.47;3.03;;;;;;;;;;4956526;28;20066;-50
2022/08/23 13:27:58;;;;;;;4.82;3.00;;;;;;;;;;4970940;28;20043;-48
2022/08/23 13:30:28;;;;;;;5.20;3.47;;;;;;;;;;4971714;28;20394;-48
2022/08/23 13:33:02;;;;;;;6.72;3.70;;;;;;;;;;4971980;28;20031;-49
2022/08/23 13:35:37;;;;;;;4.13;2.83;;;;;;;;;;4971834;28;20042;-48
2022/08/23 13:38:12;;;;;;;3.35;2.97;;;;;;;;;;4971570;28;20538;-48
2022/08/23 13:41:01;;;;;;;4.55;3.42;;;;;;;;;;4971492;28;20035;-49
2022/08/23 13:43:45;;;;;;;3.40;3.10;;;;;;;;;;4931958;28;20117;-50
2022/08/23 13:46:18;;;;;;;5.00;3.03;;;;;;;;;;4975387;28;20035;-48
2022/08/23 13:49:10;;;;;;;4.60;3.00;;;;;;;;;;4975274;28;20089;-51
2022/08/23 13:51:57;;;;;;;5.10;3.08;;;;;;;;;;4975195;28;20060;-51
2022/08/23 13:54:23;;;;;;;5.25;2.70;;;;;;;;;;4975096;28;20054;-50
2022/08/23 13:56:52;;;;;;;3.53;3.10;;;;;;;;;;4974580;28;20033;-52
2022/08/23 13:59:26;;;;;;;4.28;3.42;;;;;;;;;;4975447;28;20035;-47
2022/08/23 14:01:53;;;;;;;4.95;2.97;;;;;;;;;;4975061;28;20146;-47
2022/08/23 14:04:18;;;;;;;2.97;2.78;;;;;;;;;;4975124;28;20089;-49
2022/08/23 14:06:44;;;;;;;5.25;3.50;;;;;;;;;;4975139;28;20035;-50
2022/08/23 14:09:10;;;;;;;4.30;2.80;;;;;;;;;;4975198;28;20434;-50
2022/08/23 14:11:36;;;;;;;6.68;3.63;;;;;;;;;;4974939;28;20031;-52
2022/08/23 14:14:02;;;;;;;4.93;3.10;;;;;;;;;;4974856;28;20026;-51
2022/08/23 14:16:30;;;;;;;6.72;3.25;;;;;;;;;;4974755;28;20041;-46
2022/08/23 14:18:57;;;;;;;4.10;3.05;;;;;;;;;;4975217;28;20023;-47
2022/08/23 14:21:23;;;;;;;3.40;2.83;;;;;;;;;;4974912;28;20121;-47
2022/08/23 14:23:48;;;;;;;5.93;3.10;;;;;;;;;;4974923;28;20585;-50
2022/08/23 14:26:17;;;;;;;3.13;2.92;;;;;;;;;;4974588;28;20048;-46
2022/08/23 14:28:44;;;;;;;3.40;3.10;;;;;;;;;;4974655;28;20042;-50
2022/08/23 14:31:09;;;;;;;3.63;2.83;;;;;;;;;;4973927;28;20038;-47
2022/08/23 14:33:35;;;;;;;3.35;3.00;;;;;;;;;;4973353;28;20054;-49
2022/08/23 14:36:02;;;;;;;4.75;3.28;;;;;;;;;;4972984;28;20035;-48
2022/08/23 14:38:27;;;;;;;3.75;3.03;;;;;;;;;;4923686;28;20562;-49
2022/08/23 14:40:57;;;;;;;5.78;3.45;;;;;;;;;;4972911;28;20066;-51
2022/08/23 14:43:24;;;;;;;4.15;3.00;;;;;;;;;;4970928;28;20106;-51
2022/08/23 14:45:50;;;;;;;4.88;3.33;;;;;;;;;;4973204;28;20033;-49
2022/08/23 14:48:16;;;;;;;15.75;5.30;;;;;;;;;;4972846;28;20043;-51
2022/08/23 14:50:42;;;;;;;5.18;3.50;;;;;;;;;;4972954;28;20077;-48
2022/08/23 14:53:09;;;;;;;5.75;3.70;;;;;;;;;;4973049;28;20037;-50
2022/08/23 14:55:35;;;;;;;7.63;3.60;;;;;;;;;;4972938;28;20034;-48
2022/08/23 14:58:02;;;;;;;5.85;3.45;;;;;;;;;;4974073;28;20117;-53
2022/08/23 15:00:29;;;;;;;3.92;3.63;;;;;;;;;;4973966;28;20109;-47
2022/08/23 15:02:59;;;;;;;6.43;3.40;;;;;;;;;;4974414;28;20029;-51
2022/08/23 15:05:24;;;;;;;5.80;3.50;;;;;;;;;;4972615;28;20058;-47
2022/08/23 15:07:49;;;;;;;5.90;3.60;;;;;;;;;;4973959;28;20121;-52